Los Alamos, NM

3:06 AM MDT on October 25, 2014 (GMT -0600)
Alta Vista in White Rock | Change Station
CLOSE
Current Station
Personal Weather Station
Location: White Rock, NM
Elevation: 6572 ft
Nearby Weather Stations

Elev 6572 ft 35.82 °N, 106.22 °W | Updated 36 seconds ago

Clear
Clear
45.3 °F
Feels Like 44 °F
N
3.5
Wind Variable Wind from NW
Gusts 3.5 mph

Today
High -- | Low -- °F
--% Chance of Precip.
Yesterday
High -- | Low -- °F
Precip. -- in
7:20 AM 6:16 PM
New Moon, 2% visible
Pressure 30.38 in
Visibility 10.0 miles
Clouds Clear
Windchill 44 °F
Dew Point 25 °F
Humidity 45%
Rainfall 0.00 in
Snow Depth Not available.
UV 0 out of 12
Pollen 3.50 out of 12
Air Quality Not available.
Flu Activity Sporadic
METAR KLAM 250855Z AUTO 00000KT 10SM CLR 13/M07 A3038 RMK AO2 T01271066

More Conditions Fewer Conditions

Pressure 30.38 in
Visibility 10.0 miles
Clouds Clear
Windchill 44 °F
Dew Point 25 °F
Humidity 45%
Rainfall 0.00 in
Snow Depth Not available.
UV 0 out of 12
Pollen 3.50 out of 12
Air Quality Not available.
Flu Activity Sporadic
METAR KLAM 250855Z AUTO 00000KT 10SM CLR 13/M07 A3038 RMK AO2 T01271066

More Conditions Fewer Conditions

10-Day Weather Forecast

Almanac

Astronomy

Oct. 25, 2014 Rise Set
Actual Time 7:20 AM MDT 6:16 PM MDT
Civil Twilight 6:54 AM MDT 6:43 PM MDT
Nautical Twilight 6:24 AM MDT 7:12 PM MDT
Astronomical Twilight 5:54 AM MDT 7:42 PM MDT
Moon 8:59 AM MDT 7:44 PM MDT
Length of Visible Light 11h 48m
Length of Day
10h 56m
Tomorrow will be 2m 5s shorter.
New Moon, 2% of the Moon is Illuminated
Today
New Moon
Oct 30
First Quarter
Nov 6
Full
Nov 14
Last Quarter
Nov 22
New

Today's Extremes

State Highs State Lows

Community

WunderPhotos

Upload Photos

1,764,796 photos uploaded!

Nearby

Snow Depth

Station Depth Elevation
Quemazon 1 in 9500 ft
Santa Fe 1 in 11445 ft
Elk Cabin 0 in 8210 ft
Senorita Divide #2 0 in 8600 ft
Wesner Springs 0 in 11120 ft

Earthquake Activity

City Distance Mag. Time & Date
No recent earthquake activity has been reported nearby.
Minimum magnitude displayed is 2.5.

Coastal Water Temperatures

Place Temperature
No Stations Reporting

Nearby Weather Stations